Time;durP1;ratioP1;P1;durP2;ratioP2;P2;SDS_P1;SDS_P2;PMS_P1;PMS_P2;Temp;Humidity;BMP_temperature;BMP_pressure;BME280_temperature;BME280_humidity;BME280_pressure;Samples;Min_cycle;Max_cycle;Signal;HPM_P1;HPM_P2
2023/08/07 00:03:36;;;;;;;1.87;0.70;;;;;;;;;;10433398;28;20415;-80
2023/08/07 00:08:40;;;;;;;0.90;0.90;;;;;;;;;;10430668;28;20434;-80
2023/08/07 00:13:42;;;;;;;1.55;0.70;;;;;;;;;;10436658;28;20419;-80
2023/08/07 00:18:44;;;;;;;2.10;1.00;;;;;;;;;;10431932;28;20425;-80
2023/08/07 00:23:49;;;;;;;0.82;0.80;;;;;;;;;;10429941;28;20470;-80
2023/08/07 00:28:51;;;;;;;1.05;0.95;;;;;;;;;;10429517;28;20453;-80
2023/08/07 00:33:55;;;;;;;0.73;0.73;;;;;;;;;;10430723;28;20468;-80
2023/08/07 00:38:58;;;;;;;1.83;0.68;;;;;;;;;;10429015;28;20423;-81
2023/08/07 00:44:01;;;;;;;1.35;0.82;;;;;;;;;;10437188;28;20409;-80
2023/08/07 00:49:04;;;;;;;0.70;0.70;;;;;;;;;;10438403;23;20400;-80
2023/08/07 00:54:11;;;;;;;1.27;0.90;;;;;;;;;;10430933;28;20458;-80
2023/08/07 00:59:14;;;;;;;1.70;1.05;;;;;;;;;;10430715;28;20513;-80
2023/08/07 01:04:16;;;;;;;1.10;0.87;;;;;;;;;;10424528;28;20472;-80
2023/08/07 01:09:20;;;;;;;0.98;0.70;;;;;;;;;;10426322;28;20400;-79
2023/08/07 01:14:32;;;;;;;1.27;0.77;;;;;;;;;;10427538;28;20438;-80
2023/08/07 01:19:36;;;;;;;1.58;0.75;;;;;;;;;;10408553;28;20510;-80
2023/08/07 01:24:40;;;;;;;1.53;0.80;;;;;;;;;;10427429;28;20413;-80
2023/08/07 01:29:52;;;;;;;0.80;0.80;;;;;;;;;;10425875;28;20488;-80
2023/08/07 01:34:57;;;;;;;2.03;1.10;;;;;;;;;;10428977;28;20778;-80
2023/08/07 01:40:03;;;;;;;2.47;1.05;;;;;;;;;;10428411;28;20429;-80
2023/08/07 01:45:06;;;;;;;1.30;1.10;;;;;;;;;;10429923;28;20405;-80
2023/08/07 01:50:09;;;;;;;1.10;1.00;;;;;;;;;;10427859;28;20546;-80
2023/08/07 01:55:13;;;;;;;1.67;1.30;;;;;;;;;;10428948;28;20764;-80
2023/08/07 02:00:15;;;;;;;1.00;0.77;;;;;;;;;;10427372;28;20903;-80
2023/08/07 02:05:18;;;;;;;2.83;0.90;;;;;;;;;;10427820;28;20947;-80
2023/08/07 02:10:22;;;;;;;0.60;0.60;;;;;;;;;;10428825;28;20415;-79
2023/08/07 02:15:24;;;;;;;1.58;0.77;;;;;;;;;;10424710;28;20860;-80
2023/08/07 02:20:26;;;;;;;0.73;0.60;;;;;;;;;;10427613;28;20425;-80
2023/08/07 02:25:30;;;;;;;2.42;1.27;;;;;;;;;;10427571;28;20404;-80
2023/08/07 02:30:32;;;;;;;1.30;0.80;;;;;;;;;;10430194;28;20893;-80
2023/08/07 02:35:35;;;;;;;1.05;0.77;;;;;;;;;;10427574;28;20413;-80
2023/08/07 02:40:38;;;;;;;1.23;0.90;;;;;;;;;;10433121;28;20452;-80
2023/08/07 02:45:41;;;;;;;1.00;0.90;;;;;;;;;;10435803;28;20413;-80
2023/08/07 02:50:43;;;;;;;1.08;0.90;;;;;;;;;;10435198;28;20481;-80
2023/08/07 02:55:46;;;;;;;1.40;1.10;;;;;;;;;;10434907;28;20494;-79
2023/08/07 03:00:49;;;;;;;1.13;1.03;;;;;;;;;;10431718;28;20482;-80
2023/08/07 03:05:52;;;;;;;1.40;1.10;;;;;;;;;;10435089;28;20411;-80
2023/08/07 03:10:57;;;;;;;1.80;1.10;;;;;;;;;;10435683;28;20778;-80
2023/08/07 03:16:03;;;;;;;2.35;1.13;;;;;;;;;;10436940;28;20443;-80
2023/08/07 03:21:05;;;;;;;1.08;0.90;;;;;;;;;;10433072;28;20431;-79
2023/08/07 03:26:10;;;;;;;2.20;1.30;;;;;;;;;;10433708;28;20463;-80
2023/08/07 03:31:13;;;;;;;1.75;1.02;;;;;;;;;;10435008;28;20416;-80
2023/08/07 03:36:15;;;;;;;1.10;1.00;;;;;;;;;;10432872;28;20482;-80
2023/08/07 03:41:19;;;;;;;1.80;1.50;;;;;;;;;;10429581;28;20461;-80
2023/08/07 03:46:22;;;;;;;1.40;1.30;;;;;;;;;;10435673;28;20933;-79
2023/08/07 03:51:24;;;;;;;2.50;1.40;;;;;;;;;;10432005;28;20421;-79
2023/08/07 03:56:27;;;;;;;2.55;1.30;;;;;;;;;;10431352;28;20477;-80
2023/08/07 04:01:30;;;;;;;2.00;1.15;;;;;;;;;;10430785;28;20517;-80
2023/08/07 04:06:32;;;;;;;2.20;1.30;;;;;;;;;;10431584;28;20413;-79
2023/08/07 04:11:36;;;;;;;2.63;1.45;;;;;;;;;;10432289;28;20481;-80
2023/08/07 04:16:38;;;;;;;1.57;1.47;;;;;;;;;;10429191;28;20819;-80
2023/08/07 04:21:40;;;;;;;2.30;1.30;;;;;;;;;;10431722;28;20486;-80
2023/08/07 04:26:44;;;;;;;1.70;1.40;;;;;;;;;;10429950;28;20413;-79
2023/08/07 04:31:46;;;;;;;2.45;1.40;;;;;;;;;;10429176;28;20405;-80
2023/08/07 04:36:50;;;;;;;1.40;1.27;;;;;;;;;;10431061;28;20407;-80
2023/08/07 04:41:53;;;;;;;2.30;1.27;;;;;;;;;;10433918;28;20505;-80
2023/08/07 04:46:56;;;;;;;1.80;1.30;;;;;;;;;;10432234;28;20410;-80
2023/08/07 04:51:58;;;;;;;3.23;1.30;;;;;;;;;;10431078;28;20452;-80
2023/08/07 04:57:02;;;;;;;1.75;1.42;;;;;;;;;;10431382;28;20420;-80
2023/08/07 05:02:05;;;;;;;3.47;1.30;;;;;;;;;;10429815;28;20905;-80
2023/08/07 05:07:07;;;;;;;2.38;1.30;;;;;;;;;;10429030;28;20409;-80
2023/08/07 05:12:11;;;;;;;2.03;1.50;;;;;;;;;;10428580;28;20415;-79
2023/08/07 05:17:13;;;;;;;1.65;1.08;;;;;;;;;;10429789;28;20955;-79
2023/08/07 05:22:16;;;;;;;2.08;0.93;;;;;;;;;;10427154;28;20429;-79
2023/08/07 05:27:20;;;;;;;1.27;1.00;;;;;;;;;;10428334;28;21030;-79
2023/08/07 05:32:22;;;;;;;2.17;1.15;;;;;;;;;;10427124;28;20413;-79
2023/08/07 05:37:24;;;;;;;2.05;1.15;;;;;;;;;;10430080;28;20407;-79
2023/08/07 05:42:28;;;;;;;1.52;1.40;;;;;;;;;;10430257;28;20890;-80
2023/08/07 05:47:31;;;;;;;1.90;1.00;;;;;;;;;;10427754;28;20472;-79
2023/08/07 05:52:33;;;;;;;1.85;1.40;;;;;;;;;;10429821;28;20411;-80
2023/08/07 05:57:37;;;;;;;1.83;1.50;;;;;;;;;;10426001;28;20413;-80
2023/08/07 06:02:39;;;;;;;3.47;1.30;;;;;;;;;;10426368;28;20451;-80
2023/08/07 06:07:41;;;;;;;2.80;1.48;;;;;;;;;;10430045;28;20412;-79
2023/08/07 06:12:45;;;;;;;3.00;2.00;;;;;;;;;;10433869;28;20443;-80
2023/08/07 06:17:47;;;;;;;4.75;2.25;;;;;;;;;;10434418;28;20416;-80
2023/08/07 06:22:50;;;;;;;2.35;1.85;;;;;;;;;;10434452;28;20448;-80
2023/08/07 06:27:53;;;;;;;3.67;2.00;;;;;;;;;;10433389;28;20465;-80
2023/08/07 06:32:56;;;;;;;4.18;1.40;;;;;;;;;;10429791;28;20432;-80
2023/08/07 06:37:58;;;;;;;2.15;1.30;;;;;;;;;;10437274;28;20407;-79
2023/08/07 06:43:02;;;;;;;2.72;1.20;;;;;;;;;;10434137;28;20411;-80
2023/08/07 06:48:04;;;;;;;2.70;1.20;;;;;;;;;;10433286;28;20414;-79
2023/08/07 06:53:06;;;;;;;1.90;0.90;;;;;;;;;;10435974;28;20465;-80
2023/08/07 06:58:11;;;;;;;2.70;1.30;;;;;;;;;;10431814;28;20508;-79
2023/08/07 07:03:13;;;;;;;2.00;0.83;;;;;;;;;;10432980;28;20463;-79
2023/08/07 07:08:15;;;;;;;1.92;0.90;;;;;;;;;;10435425;28;20404;-79
2023/08/07 07:13:19;;;;;;;2.20;0.80;;;;;;;;;;10437908;28;20505;-79
2023/08/07 07:18:21;;;;;;;3.42;0.70;;;;;;;;;;10432633;28;20479;-79
2023/08/07 07:23:24;;;;;;;0.90;0.60;;;;;;;;;;10433760;28;20882;-80
2023/08/07 07:28:28;;;;;;;1.23;0.50;;;;;;;;;;10432312;28;20413;-80
2023/08/07 07:33:30;;;;;;;0.70;0.40;;;;;;;;;;10432682;28;20420;-80
2023/08/07 07:38:32;;;;;;;1.33;0.60;;;;;;;;;;10434772;28;20927;-78
2023/08/07 07:43:36;;;;;;;1.67;0.40;;;;;;;;;;10426750;28;20434;-80
2023/08/07 07:48:38;;;;;;;0.55;0.40;;;;;;;;;;10433278;28;20818;-80
2023/08/07 07:53:41;;;;;;;0.77;0.40;;;;;;;;;;10431534;28;20404;-80
2023/08/07 07:58:44;;;;;;;0.90;0.32;;;;;;;;;;10433643;28;20493;-80
2023/08/07 08:03:46;;;;;;;1.60;0.68;;;;;;;;;;10432769;28;20409;-81
2023/08/07 08:08:49;;;;;;;2.20;0.40;;;;;;;;;;10431766;28;20408;-80
2023/08/07 08:13:52;;;;;;;1.30;0.23;;;;;;;;;;10427193;28;20505;-81
2023/08/07 08:18:55;;;;;;;0.80;0.70;;;;;;;;;;10431682;28;20422;-80
2023/08/07 08:23:57;;;;;;;1.17;0.40;;;;;;;;;;10430956;28;20881;-81
2023/08/07 08:29:01;;;;;;;0.40;0.30;;;;;;;;;;10430053;28;20964;-81
2023/08/07 08:34:03;;;;;;;0.40;0.30;;;;;;;;;;10430192;28;20415;-81
2023/08/07 08:39:06;;;;;;;0.53;0.30;;;;;;;;;;10430787;28;20421;-81
2023/08/07 08:44:13;;;;;;;1.10;0.30;;;;;;;;;;10433743;28;20953;-80
2023/08/07 08:49:20;;;;;;;0.57;0.40;;;;;;;;;;10429345;28;20483;-80
2023/08/07 08:54:22;;;;;;;0.40;0.33;;;;;;;;;;10429745;28;20461;-81
2023/08/07 08:59:26;;;;;;;1.50;0.50;;;;;;;;;;10433630;28;20452;-81
2023/08/07 09:04:28;;;;;;;3.20;0.47;;;;;;;;;;10429294;28;20404;-80
2023/08/07 09:09:31;;;;;;;0.30;0.30;;;;;;;;;;10429459;28;20771;-81
2023/08/07 09:14:40;;;;;;;1.70;0.40;;;;;;;;;;10424443;28;20450;-80
2023/08/07 09:19:43;;;;;;;1.02;0.40;;;;;;;;;;10430302;28;21107;-80
2023/08/07 09:24:45;;;;;;;4.07;0.50;;;;;;;;;;10426228;28;20416;-81
2023/08/07 09:29:49;;;;;;;1.33;0.53;;;;;;;;;;10426125;28;20447;-80
2023/08/07 09:34:52;;;;;;;0.68;0.40;;;;;;;;;;10430561;28;20465;-81
2023/08/07 09:39:55;;;;;;;0.73;0.40;;;;;;;;;;10424104;28;20478;-81
2023/08/07 09:44:59;;;;;;;1.37;0.30;;;;;;;;;;10427074;28;20433;-81
2023/08/07 09:50:01;;;;;;;0.30;0.20;;;;;;;;;;10426878;28;20822;-81
2023/08/07 09:55:05;;;;;;;0.73;0.40;;;;;;;;;;10429115;28;20845;-81
2023/08/07 10:00:11;;;;;;;0.50;0.30;;;;;;;;;;10425907;28;20459;-81
2023/08/07 10:05:15;;;;;;;0.30;0.30;;;;;;;;;;10426711;28;20425;-81
2023/08/07 10:10:18;;;;;;;0.80;0.30;;;;;;;;;;10430814;28;20433;-81
2023/08/07 10:15:22;;;;;;;1.47;0.20;;;;;;;;;;10430694;28;20441;-81
2023/08/07 10:20:27;;;;;;;0.35;0.30;;;;;;;;;;10426062;28;20483;-81
2023/08/07 10:25:30;;;;;;;0.28;0.22;;;;;;;;;;10426062;28;20407;-81
2023/08/07 10:30:35;;;;;;;0.28;0.28;;;;;;;;;;10424025;28;20443;-82
2023/08/07 10:35:37;;;;;;;1.43;0.30;;;;;;;;;;10426059;28;20400;-81
2023/08/07 10:41:07;;;;;;;0.80;0.30;;;;;;;;;;10424646;28;20753;-81
2023/08/07 10:46:12;;;;;;;1.30;0.20;;;;;;;;;;10428166;28;20894;-81
2023/08/07 10:51:15;;;;;;;0.30;0.20;;;;;;;;;;10425324;28;20759;-81
2023/08/07 10:56:20;;;;;;;0.80;0.30;;;;;;;;;;10425253;28;20409;-81
2023/08/07 11:01:36;;;;;;;1.00;0.40;;;;;;;;;;10432860;28;20423;-81
2023/08/07 11:06:39;;;;;;;1.02;0.28;;;;;;;;;;10434322;28;20436;-81
2023/08/07 11:11:44;;;;;;;0.65;0.30;;;;;;;;;;10431264;28;20417;-81
2023/08/07 11:16:49;;;;;;;0.80;0.22;;;;;;;;;;10438127;28;20410;-82
2023/08/07 11:21:51;;;;;;;0.37;0.17;;;;;;;;;;10433402;28;20420;-82
2023/08/07 11:26:55;;;;;;;0.20;0.10;;;;;;;;;;10433366;28;20410;-82
2023/08/07 11:31:59;;;;;;;0.30;0.17;;;;;;;;;;10435155;28;20413;-81
2023/08/07 11:37:01;;;;;;;0.35;0.20;;;;;;;;;;10432205;28;20407;-82
2023/08/07 11:42:04;;;;;;;0.65;0.30;;;;;;;;;;10434647;28;20493;-81
2023/08/07 11:47:09;;;;;;;3.38;0.60;;;;;;;;;;10430778;28;20768;-82
2023/08/07 11:52:13;;;;;;;0.90;0.40;;;;;;;;;;10431558;28;20833;-82
2023/08/07 11:57:17;;;;;;;1.08;0.22;;;;;;;;;;10435208;28;20470;-82
2023/08/07 12:02:25;;;;;;;0.33;0.27;;;;;;;;;;10431522;28;20428;-81
2023/08/07 12:07:29;;;;;;;0.30;0.20;;;;;;;;;;10433116;28;20890;-81
2023/08/07 12:12:34;;;;;;;1.50;0.20;;;;;;;;;;10435638;28;20407;-81
2023/08/07 12:17:38;;;;;;;1.17;0.10;;;;;;;;;;10411181;28;20413;-82
2023/08/07 12:22:40;;;;;;;1.00;0.20;;;;;;;;;;10426200;28;20456;-81
2023/08/07 12:27:42;;;;;;;0.13;0.13;;;;;;;;;;10428794;28;20452;-82
2023/08/07 12:32:46;;;;;;;0.40;0.30;;;;;;;;;;10432526;28;20442;-82
2023/08/07 12:37:48;;;;;;;0.20;0.20;;;;;;;;;;10428759;28;20417;-82
2023/08/07 12:42:51;;;;;;;1.02;0.30;;;;;;;;;;10435890;28;20816;-81
2023/08/07 12:47:54;;;;;;;0.32;0.28;;;;;;;;;;10431996;28;20404;-82
2023/08/07 12:52:57;;;;;;;0.40;0.20;;;;;;;;;;10428167;28;20961;-82
2023/08/07 12:57:59;;;;;;;0.30;0.25;;;;;;;;;;10427272;28;20456;-82
2023/08/07 13:03:03;;;;;;;0.20;0.20;;;;;;;;;;10431601;28;20823;-82
2023/08/07 13:08:05;;;;;;;0.40;0.30;;;;;;;;;;10429123;28;20421;-82
2023/08/07 13:13:08;;;;;;;0.88;0.30;;;;;;;;;;10431810;28;20421;-81
2023/08/07 13:18:14;;;;;;;0.20;0.20;;;;;;;;;;10430533;28;20405;-81
2023/08/07 13:23:16;;;;;;;1.20;0.20;;;;;;;;;;10427088;28;20426;-82
2023/08/07 13:28:18;;;;;;;0.52;0.30;;;;;;;;;;10429934;28;20493;-82
2023/08/07 13:33:22;;;;;;;1.00;0.30;;;;;;;;;;10427718;28;20403;-82
2023/08/07 13:38:24;;;;;;;0.50;0.30;;;;;;;;;;10430043;28;20457;-82
2023/08/07 13:43:28;;;;;;;0.80;0.20;;;;;;;;;;10431320;28;21513;-81
2023/08/07 13:48:33;;;;;;;0.50;0.32;;;;;;;;;;10429496;28;20481;-82
2023/08/07 13:53:35;;;;;;;0.38;0.30;;;;;;;;;;10426990;28;20413;-82
2023/08/07 13:58:38;;;;;;;0.60;0.30;;;;;;;;;;10423353;28;20448;-82
2023/08/07 14:03:41;;;;;;;0.20;0.20;;;;;;;;;;10428611;28;20429;-81
2023/08/07 14:08:44;;;;;;;0.70;0.30;;;;;;;;;;10427160;28;20440;-81
2023/08/07 14:13:47;;;;;;;0.70;0.30;;;;;;;;;;10436043;28;20453;-81
2023/08/07 14:18:51;;;;;;;0.40;0.40;;;;;;;;;;10428081;28;20467;-81
2023/08/07 14:23:53;;;;;;;0.40;0.40;;;;;;;;;;10426831;28;20420;-81
2023/08/07 14:28:56;;;;;;;0.25;0.20;;;;;;;;;;10431425;28;20411;-82
2023/08/07 14:33:59;;;;;;;0.32;0.30;;;;;;;;;;10434094;28;20823;-81
2023/08/07 14:39:02;;;;;;;0.60;0.40;;;;;;;;;;10434451;28;20441;-81
2023/08/07 14:44:04;;;;;;;0.80;0.35;;;;;;;;;;10430598;28;20424;-82
2023/08/07 14:49:08;;;;;;;0.50;0.22;;;;;;;;;;10434085;28;20434;-82
2023/08/07 14:54:10;;;;;;;0.57;0.35;;;;;;;;;;10435649;28;20410;-83
2023/08/07 14:59:12;;;;;;;0.50;0.40;;;;;;;;;;10432898;28;20409;-82
2023/08/07 15:04:16;;;;;;;0.40;0.30;;;;;;;;;;10433964;28;20419;-81
2023/08/07 15:09:19;;;;;;;0.50;0.40;;;;;;;;;;10434611;28;20716;-81
2023/08/07 15:14:21;;;;;;;0.40;0.35;;;;;;;;;;10435179;28;20419;-81
2023/08/07 15:19:25;;;;;;;0.50;0.40;;;;;;;;;;10434851;28;20415;-81
2023/08/07 15:24:27;;;;;;;1.38;0.30;;;;;;;;;;10433683;28;20425;-82
2023/08/07 15:29:29;;;;;;;0.90;0.22;;;;;;;;;;10436353;28;20481;-82
2023/08/07 15:34:34;;;;;;;0.98;0.30;;;;;;;;;;10433652;28;20467;-82
2023/08/07 15:39:36;;;;;;;1.30;0.40;;;;;;;;;;10432986;28;20449;-82
2023/08/07 15:44:39;;;;;;;0.30;0.30;;;;;;;;;;10430209;28;20467;-82
2023/08/07 15:49:44;;;;;;;0.80;0.40;;;;;;;;;;10432761;28;20569;-82
2023/08/07 15:54:46;;;;;;;0.68;0.40;;;;;;;;;;10432981;28;20426;-82
2023/08/07 15:59:48;;;;;;;0.65;0.50;;;;;;;;;;10429528;28;20826;-83
2023/08/07 16:04:52;;;;;;;0.50;0.50;;;;;;;;;;10432341;28;20459;-82
2023/08/07 16:09:54;;;;;;;0.63;0.50;;;;;;;;;;10431874;28;20818;-82
2023/08/07 16:14:58;;;;;;;2.00;0.50;;;;;;;;;;10433894;28;20417;-82
2023/08/07 16:20:02;;;;;;;0.77;0.50;;;;;;;;;;10431652;28;20411;-81
2023/08/07 16:25:05;;;;;;;1.20;0.50;;;;;;;;;;10430778;28;20476;-80
2023/08/07 16:30:08;;;;;;;1.27;0.50;;;;;;;;;;10433452;28;20417;-82
2023/08/07 16:35:12;;;;;;;1.00;0.40;;;;;;;;;;10431507;28;20430;-83
2023/08/07 16:40:15;;;;;;;2.63;0.70;;;;;;;;;;10430765;28;20413;-82
2023/08/07 16:45:19;;;;;;;2.53;0.57;;;;;;;;;;10429667;28;20897;-82
2023/08/07 16:50:23;;;;;;;0.47;0.40;;;;;;;;;;10430075;28;20471;-82
2023/08/07 16:55:26;;;;;;;0.53;0.40;;;;;;;;;;10429299;28;20404;-81
2023/08/07 17:00:28;;;;;;;0.70;0.30;;;;;;;;;;10435485;28;20412;-82
2023/08/07 17:05:31;;;;;;;1.13;0.45;;;;;;;;;;10429767;28;20424;-82
2023/08/07 17:10:34;;;;;;;0.57;0.40;;;;;;;;;;10430321;28;20948;-82
2023/08/07 17:15:37;;;;;;;0.70;0.40;;;;;;;;;;10435113;28;20407;-82
2023/08/07 17:20:41;;;;;;;1.30;0.50;;;;;;;;;;10428609;28;20398;-81
2023/08/07 17:25:43;;;;;;;1.13;0.53;;;;;;;;;;10429699;28;20980;-82
2023/08/07 17:30:45;;;;;;;1.33;0.53;;;;;;;;;;10434629;28;20407;-82
2023/08/07 17:35:49;;;;;;;1.40;0.43;;;;;;;;;;10429107;28;20413;-82
2023/08/07 17:40:52;;;;;;;0.60;0.50;;;;;;;;;;10428681;28;20400;-82
2023/08/07 17:45:55;;;;;;;0.73;0.40;;;;;;;;;;10425538;28;20480;-82
2023/08/07 17:50:59;;;;;;;1.00;0.40;;;;;;;;;;10425795;28;20818;-81
2023/08/07 17:56:01;;;;;;;1.07;0.40;;;;;;;;;;10429210;28;20404;-81
2023/08/07 18:01:03;;;;;;;1.43;0.50;;;;;;;;;;10430845;28;20475;-82
2023/08/07 18:06:07;;;;;;;1.30;0.38;;;;;;;;;;10429008;28;20431;-81
2023/08/07 18:11:09;;;;;;;2.20;0.60;;;;;;;;;;10426577;28;20407;-82
2023/08/07 18:16:12;;;;;;;0.55;0.38;;;;;;;;;;10434119;28;20404;-81
2023/08/07 18:21:17;;;;;;;2.50;0.53;;;;;;;;;;10434631;28;20405;-81
2023/08/07 18:26:19;;;;;;;2.10;1.20;;;;;;;;;;10437175;28;20443;-81
2023/08/07 18:31:24;;;;;;;1.60;0.60;;;;;;;;;;10433581;28;20412;-81
2023/08/07 18:36:28;;;;;;;1.83;1.00;;;;;;;;;;10434982;28;20413;-81
2023/08/07 18:41:30;;;;;;;0.88;0.73;;;;;;;;;;10438333;28;20469;-81
2023/08/07 18:46:33;;;;;;;1.33;0.60;;;;;;;;;;10414077;28;20413;-82
2023/08/07 18:51:37;;;;;;;0.90;0.70;;;;;;;;;;10433859;28;20819;-82
2023/08/07 18:56:39;;;;;;;1.50;0.90;;;;;;;;;;10435843;28;20426;-81
2023/08/07 19:01:42;;;;;;;1.13;0.70;;;;;;;;;;10435635;28;20459;-81
2023/08/07 19:06:46;;;;;;;5.25;0.70;;;;;;;;;;10435177;28;20403;-81
2023/08/07 19:11:48;;;;;;;1.85;0.82;;;;;;;;;;10432950;28;20421;-82
2023/08/07 19:16:50;;;;;;;4.00;1.17;;;;;;;;;;10437975;28;20409;-81
2023/08/07 19:21:54;;;;;;;1.17;0.70;;;;;;;;;;10431186;28;20445;-81
2023/08/07 19:26:56;;;;;;;0.95;0.80;;;;;;;;;;10434383;28;20471;-81
2023/08/07 19:31:58;;;;;;;2.05;0.70;;;;;;;;;;10431822;28;20416;-81
2023/08/07 19:37:02;;;;;;;2.43;1.00;;;;;;;;;;10431414;28;20405;-81
2023/08/07 19:42:05;;;;;;;1.83;0.88;;;;;;;;;;10437247;28;20443;-81
2023/08/07 19:47:07;;;;;;;2.38;1.42;;;;;;;;;;10434218;28;20403;-80
2023/08/07 19:52:11;;;;;;;2.38;1.10;;;;;;;;;;10430955;28;20756;-81
2023/08/07 19:57:13;;;;;;;1.65;1.10;;;;;;;;;;10434804;28;20418;-81
2023/08/07 20:02:16;;;;;;;1.95;1.20;;;;;;;;;;10430960;28;20407;-81
2023/08/07 20:07:19;;;;;;;3.30;1.10;;;;;;;;;;10415763;28;20979;-81
2023/08/07 20:12:22;;;;;;;2.85;1.15;;;;;;;;;;10434122;28;20914;-81
2023/08/07 20:17:24;;;;;;;1.50;0.93;;;;;;;;;;10430681;28;20969;-81
2023/08/07 20:22:28;;;;;;;2.50;0.90;;;;;;;;;;10433944;28;20454;-81
2023/08/07 20:27:30;;;;;;;2.23;0.70;;;;;;;;;;10430939;28;20973;-81
2023/08/07 20:32:32;;;;;;;1.77;0.90;;;;;;;;;;10429323;28;20432;-81
2023/08/07 20:37:36;;;;;;;1.00;0.90;;;;;;;;;;10432507;28;20408;-81
2023/08/07 20:42:38;;;;;;;2.00;1.10;;;;;;;;;;10431231;28;20417;-82
2023/08/07 20:47:40;;;;;;;3.10;1.10;;;;;;;;;;10429114;28;20401;-81
2023/08/07 20:52:44;;;;;;;2.67;0.80;;;;;;;;;;10430923;28;20408;-82
2023/08/07 20:57:46;;;;;;;1.65;1.10;;;;;;;;;;10430989;28;20413;-82
2023/08/07 21:02:49;;;;;;;2.65;1.00;;;;;;;;;;10431816;28;20911;-82
2023/08/07 21:07:53;;;;;;;1.08;0.90;;;;;;;;;;10426646;28;20421;-81
2023/08/07 21:12:55;;;;;;;0.98;0.88;;;;;;;;;;10427539;28;20447;-81
2023/08/07 21:17:58;;;;;;;1.70;1.05;;;;;;;;;;10430419;28;20425;-81
2023/08/07 21:23:02;;;;;;;1.30;0.80;;;;;;;;;;10427281;28;20505;-81
2023/08/07 21:28:05;;;;;;;3.90;0.90;;;;;;;;;;10433567;28;20430;-81
2023/08/07 21:33:07;;;;;;;0.80;0.60;;;;;;;;;;10430509;28;20413;-81
2023/08/07 21:38:11;;;;;;;0.90;0.80;;;;;;;;;;10427947;28;20438;-81
2023/08/07 21:43:13;;;;;;;1.92;1.00;;;;;;;;;;10427689;28;20468;-82
2023/08/07 21:48:16;;;;;;;1.40;0.68;;;;;;;;;;10428012;28;20437;-81
2023/08/07 21:53:19;;;;;;;1.20;0.60;;;;;;;;;;10429691;28;20421;-81
2023/08/07 21:58:21;;;;;;;1.48;0.50;;;;;;;;;;10431117;28;20466;-81
2023/08/07 22:03:24;;;;;;;1.00;0.70;;;;;;;;;;10428180;28;20429;-81
2023/08/07 22:08:27;;;;;;;1.08;0.50;;;;;;;;;;10428290;28;20419;-81
2023/08/07 22:13:30;;;;;;;0.57;0.50;;;;;;;;;;10426071;28;20416;-81
2023/08/07 22:18:32;;;;;;;0.43;0.40;;;;;;;;;;10428285;28;20467;-80
2023/08/07 22:23:36;;;;;;;0.40;0.40;;;;;;;;;;10427528;28;20473;-81
2023/08/07 22:28:38;;;;;;;0.40;0.40;;;;;;;;;;10431915;28;20413;-81
2023/08/07 22:33:40;;;;;;;0.50;0.50;;;;;;;;;;10427529;28;20489;-81
2023/08/07 22:38:44;;;;;;;0.98;0.50;;;;;;;;;;10427535;28;20469;-81
2023/08/07 22:43:46;;;;;;;1.45;0.50;;;;;;;;;;10431187;28;20501;-81
2023/08/07 22:48:48;;;;;;;1.40;0.50;;;;;;;;;;10427214;28;20911;-81
2023/08/07 22:53:52;;;;;;;0.40;0.40;;;;;;;;;;10431030;28;20485;-80
2023/08/07 22:58:54;;;;;;;1.50;0.40;;;;;;;;;;10433460;28;20815;-81
2023/08/07 23:03:57;;;;;;;2.33;0.43;;;;;;;;;;10435215;28;20516;-81
2023/08/07 23:09:00;;;;;;;1.73;0.50;;;;;;;;;;10434833;28;20413;-80
2023/08/07 23:14:03;;;;;;;4.55;0.50;;;;;;;;;;10437723;28;20569;-80
2023/08/07 23:19:05;;;;;;;1.30;0.50;;;;;;;;;;10433740;28;20440;-81
2023/08/07 23:24:09;;;;;;;1.38;0.50;;;;;;;;;;10434270;28;20455;-81
2023/08/07 23:29:11;;;;;;;0.88;0.55;;;;;;;;;;10434020;28;20413;-81
2023/08/07 23:34:13;;;;;;;1.43;0.53;;;;;;;;;;10433948;28;20469;-81
2023/08/07 23:39:17;;;;;;;1.48;0.35;;;;;;;;;;10432616;28;20475;-81
2023/08/07 23:44:20;;;;;;;0.50;0.47;;;;;;;;;;10431890;28;20898;-81
2023/08/07 23:49:22;;;;;;;1.10;0.50;;;;;;;;;;10431853;28;20472;-81
2023/08/07 23:54:26;;;;;;;1.30;0.40;;;;;;;;;;10433952;28;20510;-80
2023/08/07 23:59:28;;;;;;;1.65;0.50;;;;;;;;;;10424787;28;20515;-81
